Sanbornton, NH

7:18 AM EST on January 22, 2017 (GMT -0500)
Southwest Sanbornton | | Change Station
Active Advisory: Storm Warning

Elev 518 ft 43.50 °N, 71.63 °W | Updated 2 minutes ago

Mostly Cloudy
Mostly Cloudy
35.1 °F
Feels Like 35 °F
N
0.0
Wind Variable Wind from SSE
Gusts 0.0 mph

Today
High -- | Low -- °F
--% Chance of Precip.
Yesterday
High -- | Low -- °F
Precip. -- in
Pressure 29.84 in
Visibility 10.0 miles
Clouds Clear
Windchill 35 °F
Dew Point 34 °F
Humidity 98%
Rainfall 0.00 in
Snow Depth Not available.
7:11 AM 4:44 PM
Waning Crescent, 27% visible
METAR KLCI 221156Z AUTO 00000KT 10SM CLR 00/00 A2978 RMK AO2 SLP103 7//// T00000000 10033 20000 53009 FZRANO
Pressure 29.84 in
Visibility 10.0 miles
Clouds Clear
Windchill 35 °F
Dew Point 34 °F
Humidity 98%
Rainfall 0.00 in
Snow Depth Not available.
7:11 AM 4:44 PM
Waning Crescent, 27% visible
METAR KLCI 221156Z AUTO 00000KT 10SM CLR 00/00 A2978 RMK AO2 SLP103 7//// T00000000 10033 20000 53009 FZRANO

Get Your Daily Forecast Email!

Thanks for signing up!

Be on the lookout for a verification email in your inbox.

You'll start receiving the daily forecast at 8 AM.

×

10-Day Weather Forecast

Almanac

Astronomy

Jan. 22, 2017 Rise Set
Actual Time
Civil Twilight
Nautical Twilight
Astronomical Twilight
Moon
Length of Visible Light
Length of Day
Tomorrow will be .
, % of the Moon is Illuminated

Today's Extremes

State Highs State Lows

Community

WunderPhotos

Upload Photos

1,962,540 photos uploaded!

WunderBlog® & News

Nearby

Air Quality

  Air Quality AQ Index Pollutant
Not available.

Snow Depth

Station Depth Elevation

Earthquake Activity

City Distance Mag. Time & Date
Minimum magnitude displayed is 2.5.

Coastal Water Temperatures

Place Temperature

Stations

Nearby Weather Stations

Station Location Temp. Windchill Dew Point Humidity Wind Precip. Elev Updated Type
                   

Watches & Warnings

Storm Warning
Issued: 2:55 AM EST Jan. 22, 2017 – National Weather Service

... Storm Warning remains in effect from 6 PM Monday to 11 am EST
Tuesday...

* winds... east 30 to 40 kt with gusts up to 55 kt.

* Seas... building to as high as 16 to 21 feet.

Precautionary/preparedness actions...

A Storm Warning means winds of 48 to 63 knots are imminent or
occuring. Recreational boaters should remain in port... or take
shelter until winds and waves subside. Commercial vessels should
prepare for very strong winds and dangerous sea conditions... and
consider remaining in port or taking shelter in port until winds
and waves subside.